sensor_id;sensor_type;location;lat;lon;timestamp;pressure;altitude;pressure_sealevel;temperature;humidity
70248;BME280;57641;51.416;5.506;2023-05-29T00:02:14;102309.69;;;20.06;49.05
70248;BME280;57641;51.416;5.506;2023-05-29T00:04:39;102315.94;;;20.06;50.10
70248;BME280;57641;51.416;5.506;2023-05-29T00:07:05;102307.13;;;20.04;49.38
70248;BME280;57641;51.416;5.506;2023-05-29T00:09:31;102305.56;;;20.10;49.57
70248;BME280;57641;51.416;5.506;2023-05-29T00:11:56;102303.28;;;19.99;49.46
70248;BME280;57641;51.416;5.506;2023-05-29T00:14:22;102310.06;;;20.03;49.18
70248;BME280;57641;51.416;5.506;2023-05-29T00:16:49;102314.34;;;19.89;49.86
70248;BME280;57641;51.416;5.506;2023-05-29T00:19:15;102307.44;;;19.87;49.91
70248;BME280;57641;51.416;5.506;2023-05-29T00:21:47;102308.09;;;19.89;49.29
70248;BME280;57641;51.416;5.506;2023-05-29T00:24:16;102317.28;;;19.79;49.84
70248;BME280;57641;51.416;5.506;2023-05-29T00:26:42;102317.44;;;19.47;50.36
70248;BME280;57641;51.416;5.506;2023-05-29T00:29:08;102316.94;;;19.83;50.10
70248;BME280;57641;51.416;5.506;2023-05-29T00:31:37;102326.09;;;19.51;50.63
70248;BME280;57641;51.416;5.506;2023-05-29T00:34:02;102322.91;;;19.31;50.71
70248;BME280;57641;51.416;5.506;2023-05-29T00:36:33;102331.81;;;19.48;50.59
70248;BME280;57641;51.416;5.506;2023-05-29T00:38:58;102328.09;;;19.49;50.17
70248;BME280;57641;51.416;5.506;2023-05-29T00:41:24;102337.00;;;19.10;51.40
70248;BME280;57641;51.416;5.506;2023-05-29T00:43:50;102329.88;;;19.09;50.91
70248;BME280;57641;51.416;5.506;2023-05-29T00:46:15;102334.97;;;19.04;50.28
70248;BME280;57641;51.416;5.506;2023-05-29T00:48:42;102332.63;;;19.01;50.45
70248;BME280;57641;51.416;5.506;2023-05-29T00:51:09;102329.88;;;19.09;49.96
70248;BME280;57641;51.416;5.506;2023-05-29T00:53:36;102339.25;;;18.74;50.20
70248;BME280;57641;51.416;5.506;2023-05-29T00:56:02;102338.56;;;18.96;49.83
70248;BME280;57641;51.416;5.506;2023-05-29T00:58:30;102342.59;;;19.01;50.33
70248;BME280;57641;51.416;5.506;2023-05-29T01:00:56;102346.09;;;19.09;50.34
70248;BME280;57641;51.416;5.506;2023-05-29T01:03:22;102345.63;;;19.06;50.46
70248;BME280;57641;51.416;5.506;2023-05-29T01:05:48;102348.00;;;19.09;50.17
70248;BME280;57641;51.416;5.506;2023-05-29T01:08:14;102351.88;;;18.41;50.77
70248;BME280;57641;51.416;5.506;2023-05-29T01:10:40;102358.00;;;18.92;48.55
70248;BME280;57641;51.416;5.506;2023-05-29T01:13:23;102360.34;;;18.79;47.95
70248;BME280;57641;51.416;5.506;2023-05-29T01:15:56;102360.03;;;18.74;48.03
70248;BME280;57641;51.416;5.506;2023-05-29T01:21:14;102367.09;;;18.67;47.24
70248;BME280;57641;51.416;5.506;2023-05-29T01:27:09;102359.28;;;18.15;47.70
70248;BME280;57641;51.416;5.506;2023-05-29T01:29:37;102358.81;;;18.36;47.65
70248;BME280;57641;51.416;5.506;2023-05-29T01:32:04;102366.22;;;18.26;46.84
70248;BME280;57641;51.416;5.506;2023-05-29T01:34:31;102361.00;;;18.32;46.49
70248;BME280;57641;51.416;5.506;2023-05-29T01:36:56;102369.25;;;18.31;46.00
70248;BME280;57641;51.416;5.506;2023-05-29T01:39:23;102375.50;;;18.23;46.07
70248;BME280;57641;51.416;5.506;2023-05-29T01:41:49;102368.38;;;18.14;46.69
70248;BME280;57641;51.416;5.506;2023-05-29T01:44:16;102375.47;;;18.15;45.95
70248;BME280;57641;51.416;5.506;2023-05-29T01:46:43;102371.28;;;18.21;46.11
70248;BME280;57641;51.416;5.506;2023-05-29T01:49:11;102383.09;;;18.28;46.22
70248;BME280;57641;51.416;5.506;2023-05-29T01:51:40;102383.03;;;18.03;46.11
70248;BME280;57641;51.416;5.506;2023-05-29T01:54:07;102386.22;;;17.91;46.30
70248;BME280;57641;51.416;5.506;2023-05-29T01:56:33;102386.06;;;18.00;45.94
70248;BME280;57641;51.416;5.506;2023-05-29T01:59:02;102380.66;;;17.92;46.65
70248;BME280;57641;51.416;5.506;2023-05-29T02:01:27;102380.97;;;17.81;46.25
70248;BME280;57641;51.416;5.506;2023-05-29T02:03:53;102378.97;;;17.91;46.00
70248;BME280;57641;51.416;5.506;2023-05-29T02:06:19;102381.66;;;17.91;45.95
70248;BME280;57641;51.416;5.506;2023-05-29T02:08:45;102386.56;;;17.96;46.00
70248;BME280;57641;51.416;5.506;2023-05-29T02:11:10;102378.63;;;17.86;46.16
70248;BME280;57641;51.416;5.506;2023-05-29T02:13:37;102377.78;;;17.86;46.07
70248;BME280;57641;51.416;5.506;2023-05-29T02:16:03;102377.41;;;17.81;46.66
70248;BME280;57641;51.416;5.506;2023-05-29T02:18:28;102375.88;;;17.78;46.48
70248;BME280;57641;51.416;5.506;2023-05-29T02:20:53;102380.13;;;17.89;46.76
70248;BME280;57641;51.416;5.506;2023-05-29T02:23:22;102380.47;;;17.86;46.36
70248;BME280;57641;51.416;5.506;2023-05-29T02:25:47;102386.72;;;17.86;46.07
70248;BME280;57641;51.416;5.506;2023-05-29T02:28:13;102381.44;;;17.77;46.41
70248;BME280;57641;51.416;5.506;2023-05-29T02:30:38;102382.16;;;17.87;45.99
70248;BME280;57641;51.416;5.506;2023-05-29T02:33:04;102381.97;;;17.80;46.16
70248;BME280;57641;51.416;5.506;2023-05-29T02:35:29;102389.22;;;17.80;46.27
70248;BME280;57641;51.416;5.506;2023-05-29T02:37:55;102378.06;;;17.75;46.01
70248;BME280;57641;51.416;5.506;2023-05-29T02:40:20;102390.84;;;17.72;46.36
70248;BME280;57641;51.416;5.506;2023-05-29T02:42:46;102384.63;;;17.72;46.85
70248;BME280;57641;51.416;5.506;2023-05-29T02:45:12;102386.00;;;17.76;46.71
70248;BME280;57641;51.416;5.506;2023-05-29T02:47:38;102394.25;;;17.75;46.62
70248;BME280;57641;51.416;5.506;2023-05-29T02:50:04;102398.19;;;17.54;46.87
70248;BME280;57641;51.416;5.506;2023-05-29T02:52:32;102388.53;;;17.52;46.99
70248;BME280;57641;51.416;5.506;2023-05-29T02:54:57;102399.78;;;17.65;46.78
70248;BME280;57641;51.416;5.506;2023-05-29T02:57:24;102394.06;;;17.68;46.65
70248;BME280;57641;51.416;5.506;2023-05-29T02:59:50;102397.69;;;17.59;46.92
70248;BME280;57641;51.416;5.506;2023-05-29T03:02:17;102401.00;;;17.45;47.12
70248;BME280;57641;51.416;5.506;2023-05-29T03:04:44;102404.00;;;17.42;47.12
70248;BME280;57641;51.416;5.506;2023-05-29T03:07:10;102402.78;;;17.36;47.40
70248;BME280;57641;51.416;5.506;2023-05-29T03:09:35;102410.00;;;17.27;47.78
70248;BME280;57641;51.416;5.506;2023-05-29T03:12:01;102400.13;;;17.18;48.20
70248;BME280;57641;51.416;5.506;2023-05-29T03:14:27;102396.94;;;17.15;48.23
70248;BME280;57641;51.416;5.506;2023-05-29T03:16:53;102403.13;;;17.07;48.68
70248;BME280;57641;51.416;5.506;2023-05-29T03:19:19;102402.91;;;17.01;48.26
70248;BME280;57641;51.416;5.506;2023-05-29T03:21:45;102409.38;;;17.08;48.51
70248;BME280;57641;51.416;5.506;2023-05-29T03:24:11;102409.88;;;17.11;48.32
70248;BME280;57641;51.416;5.506;2023-05-29T03:26:39;102400.72;;;17.04;48.78
70248;BME280;57641;51.416;5.506;2023-05-29T03:29:05;102407.13;;;17.03;48.64
70248;BME280;57641;51.416;5.506;2023-05-29T03:31:31;102400.78;;;16.86;49.28
70248;BME280;57641;51.416;5.506;2023-05-29T03:33:57;102400.44;;;17.07;48.65
70248;BME280;57641;51.416;5.506;2023-05-29T03:36:23;102400.44;;;17.07;48.87
70248;BME280;57641;51.416;5.506;2023-05-29T03:38:48;102400.09;;;16.84;48.98
70248;BME280;57641;51.416;5.506;2023-05-29T03:41:14;102400.13;;;16.93;48.76
70248;BME280;57641;51.416;5.506;2023-05-29T03:43:40;102393.81;;;16.76;49.80
70248;BME280;57641;51.416;5.506;2023-05-29T03:46:05;102407.59;;;16.99;48.98
70248;BME280;57641;51.416;5.506;2023-05-29T03:48:31;102404.38;;;16.95;49.08
70248;BME280;57641;51.416;5.506;2023-05-29T03:50:56;102406.19;;;16.86;49.33
70248;BME280;57641;51.416;5.506;2023-05-29T03:53:22;102415.06;;;16.87;49.33
70248;BME280;57641;51.416;5.506;2023-05-29T03:55:47;102420.94;;;16.82;49.52
70248;BME280;57641;51.416;5.506;2023-05-29T03:58:13;102429.88;;;16.83;49.58
70248;BME280;57641;51.416;5.506;2023-05-29T04:00:41;102426.34;;;16.65;50.10
70248;BME280;57641;51.416;5.506;2023-05-29T04:03:08;102415.41;;;16.66;49.41
70248;BME280;57641;51.416;5.506;2023-05-29T04:05:33;102423.81;;;16.81;49.85
70248;BME280;57641;51.416;5.506;2023-05-29T04:07:59;102435.81;;;16.69;49.95
70248;BME280;57641;51.416;5.506;2023-05-29T04:10:24;102440.59;;;16.75;49.98
70248;BME280;57641;51.416;5.506;2023-05-29T04:12:50;102436.09;;;16.83;49.54
70248;BME280;57641;51.416;5.506;2023-05-29T04:15:19;102435.97;;;16.85;49.65
70248;BME280;57641;51.416;5.506;2023-05-29T04:17:44;102443.56;;;16.89;49.53
70248;BME280;57641;51.416;5.506;2023-05-29T04:20:10;102437.50;;;16.70;50.19
70248;BME280;57641;51.416;5.506;2023-05-29T04:22:37;102430.66;;;16.75;49.90
70248;BME280;57641;51.416;5.506;2023-05-29T04:25:04;102440.13;;;16.79;49.45
70248;BME280;57641;51.416;5.506;2023-05-29T04:27:32;102453.66;;;16.70;50.38
70248;BME280;57641;51.416;5.506;2023-05-29T04:30:06;102450.59;;;16.65;49.79
70248;BME280;57641;51.416;5.506;2023-05-29T04:32:32;102456.81;;;16.65;49.93
70248;BME280;57641;51.416;5.506;2023-05-29T04:34:59;102449.81;;;16.72;49.50
70248;BME280;57641;51.416;5.506;2023-05-29T04:37:30;102459.44;;;16.75;49.55
70248;BME280;57641;51.416;5.506;2023-05-29T04:39:57;102446.97;;;16.74;49.46
70248;BME280;57641;51.416;5.506;2023-05-29T04:42:26;102451.03;;;16.96;48.73
70248;BME280;57641;51.416;5.506;2023-05-29T04:45:05;102452.72;;;16.79;49.29
70248;BME280;57641;51.416;5.506;2023-05-29T04:47:31;102459.59;;;16.73;49.56
70248;BME280;57641;51.416;5.506;2023-05-29T04:49:59;102455.66;;;15.68;52.06
70248;BME280;57641;51.416;5.506;2023-05-29T04:52:26;102469.78;;;16.52;50.14
70248;BME280;57641;51.416;5.506;2023-05-29T04:54:51;102459.84;;;16.53;49.92
70248;BME280;57641;51.416;5.506;2023-05-29T04:57:17;102463.25;;;16.55;50.04
70248;BME280;57641;51.416;5.506;2023-05-29T04:59:43;102456.59;;;16.59;49.68
70248;BME280;57641;51.416;5.506;2023-05-29T05:02:08;102460.34;;;16.66;49.57
70248;BME280;57641;51.416;5.506;2023-05-29T05:04:36;102461.81;;;16.60;49.96
70248;BME280;57641;51.416;5.506;2023-05-29T05:07:04;102469.13;;;16.68;49.86
70248;BME280;57641;51.416;5.506;2023-05-29T05:09:30;102465.81;;;16.74;49.67
70248;BME280;57641;51.416;5.506;2023-05-29T05:11:56;102465.81;;;16.74;49.32
70248;BME280;57641;51.416;5.506;2023-05-29T05:14:22;102459.97;;;16.78;49.11
70248;BME280;57641;51.416;5.506;2023-05-29T05:16:47;102472.19;;;16.73;49.88
70248;BME280;57641;51.416;5.506;2023-05-29T05:19:13;102470.59;;;16.80;49.85
70248;BME280;57641;51.416;5.506;2023-05-29T05:21:38;102474.19;;;16.71;49.84
70248;BME280;57641;51.416;5.506;2023-05-29T05:24:04;102475.28;;;16.78;49.61
70248;BME280;57641;51.416;5.506;2023-05-29T05:26:30;102474.28;;;16.61;49.58
70248;BME280;57641;51.416;5.506;2023-05-29T05:28:55;102469.97;;;16.86;49.25
70248;BME280;57641;51.416;5.506;2023-05-29T05:31:21;102473.72;;;16.93;48.60
70248;BME280;57641;51.416;5.506;2023-05-29T05:33:47;102480.75;;;16.86;48.38
70248;BME280;57641;51.416;5.506;2023-05-29T05:36:12;102476.03;;;16.88;48.47
70248;BME280;57641;51.416;5.506;2023-05-29T05:38:38;102484.31;;;16.86;48.89
70248;BME280;57641;51.416;5.506;2023-05-29T05:41:03;102481.34;;;16.98;48.59
70248;BME280;57641;51.416;5.506;2023-05-29T05:43:29;102485.06;;;16.97;48.98
70248;BME280;57641;51.416;5.506;2023-05-29T05:45:55;102487.91;;;16.95;48.74
70248;BME280;57641;51.416;5.506;2023-05-29T05:48:20;102488.44;;;16.99;48.76
70248;BME280;57641;51.416;5.506;2023-05-29T05:50:46;102481.81;;;17.11;48.72
70248;BME280;57641;51.416;5.506;2023-05-29T05:53:11;102487.91;;;16.77;49.01
70248;BME280;57641;51.416;5.506;2023-05-29T05:55:36;102478.72;;;16.88;48.77
70248;BME280;57641;51.416;5.506;2023-05-29T05:58:02;102483.41;;;17.04;48.37
70248;BME280;57641;51.416;5.506;2023-05-29T06:00:27;102487.28;;;17.01;48.28
70248;BME280;57641;51.416;5.506;2023-05-29T06:02:53;102480.09;;;17.10;48.50
70248;BME280;57641;51.416;5.506;2023-05-29T06:05:18;102480.47;;;17.15;48.05
70248;BME280;57641;51.416;5.506;2023-05-29T06:07:44;102475.16;;;17.23;47.88
70248;BME280;57641;51.416;5.506;2023-05-29T06:10:10;102483.66;;;17.10;48.34
70248;BME280;57641;51.416;5.506;2023-05-29T06:12:35;102483.25;;;17.23;47.80
70248;BME280;57641;51.416;5.506;2023-05-29T06:15:02;102492.25;;;17.31;47.49
70248;BME280;57641;51.416;5.506;2023-05-29T06:17:29;102488.19;;;17.53;46.52
70248;BME280;57641;51.416;5.506;2023-05-29T06:19:54;102493.47;;;17.19;47.26
70248;BME280;57641;51.416;5.506;2023-05-29T06:22:20;102496.63;;;17.33;47.34
70248;BME280;57641;51.416;5.506;2023-05-29T06:24:46;102497.41;;;17.25;47.59
70248;BME280;57641;51.416;5.506;2023-05-29T06:27:11;102496.47;;;17.34;47.12
70248;BME280;57641;51.416;5.506;2023-05-29T06:29:37;102511.13;;;17.57;46.65
70248;BME280;57641;51.416;5.506;2023-05-29T06:32:02;102503.81;;;17.67;46.53
70248;BME280;57641;51.416;5.506;2023-05-29T06:34:30;102501.44;;;17.64;46.88
70248;BME280;57641;51.416;5.506;2023-05-29T06:36:56;102507.31;;;17.60;46.96
70248;BME280;57641;51.416;5.506;2023-05-29T06:39:21;102514.88;;;17.39;47.52
70248;BME280;57641;51.416;5.506;2023-05-29T06:41:47;102511.94;;;17.50;46.45
70248;BME280;57641;51.416;5.506;2023-05-29T06:44:12;102521.53;;;17.52;46.35
70248;BME280;57641;51.416;5.506;2023-05-29T06:46:38;102521.25;;;17.55;46.77
70248;BME280;57641;51.416;5.506;2023-05-29T06:49:03;102529.16;;;17.57;46.69
70248;BME280;57641;51.416;5.506;2023-05-29T06:51:29;102521.31;;;17.63;46.09
70248;BME280;57641;51.416;5.506;2023-05-29T06:53:55;102518.97;;;17.68;46.08
70248;BME280;57641;51.416;5.506;2023-05-29T06:56:20;102518.09;;;17.94;46.06
70248;BME280;57641;51.416;5.506;2023-05-29T06:58:47;102518.81;;;17.96;45.68
70248;BME280;57641;51.416;5.506;2023-05-29T07:01:12;102526.75;;;17.97;45.46
70248;BME280;57641;51.416;5.506;2023-05-29T07:03:38;102519.66;;;17.96;45.33
70248;BME280;57641;51.416;5.506;2023-05-29T07:06:04;102508.88;;;18.04;45.09
70248;BME280;57641;51.416;5.506;2023-05-29T07:08:29;102513.88;;;18.25;45.09
70248;BME280;57641;51.416;5.506;2023-05-29T07:10:55;102513.72;;;18.27;45.29
70248;BME280;57641;51.416;5.506;2023-05-29T07:13:21;102511.34;;;18.24;44.52
70248;BME280;57641;51.416;5.506;2023-05-29T07:15:48;102516.97;;;18.04;45.12
70248;BME280;57641;51.416;5.506;2023-05-29T07:18:13;102524.38;;;18.36;44.59
70248;BME280;57641;51.416;5.506;2023-05-29T07:20:39;102525.56;;;18.42;44.59
70248;BME280;57641;51.416;5.506;2023-05-29T07:23:04;102524.59;;;18.51;44.44
70248;BME280;57641;51.416;5.506;2023-05-29T07:25:30;102521.88;;;18.51;44.14
70248;BME280;57641;51.416;5.506;2023-05-29T07:27:56;102522.78;;;18.18;44.39
70248;BME280;57641;51.416;5.506;2023-05-29T07:30:22;102526.22;;;18.36;43.72
70248;BME280;57641;51.416;5.506;2023-05-29T07:32:47;102525.56;;;18.42;43.58
70248;BME280;57641;51.416;5.506;2023-05-29T07:35:13;102522.56;;;18.53;44.00
70248;BME280;57641;51.416;5.506;2023-05-29T07:37:38;102530.69;;;18.53;43.37
70248;BME280;57641;51.416;5.506;2023-05-29T07:40:04;102531.09;;;18.66;43.15
70248;BME280;57641;51.416;5.506;2023-05-29T07:42:33;102529.91;;;18.69;42.91
70248;BME280;57641;51.416;5.506;2023-05-29T07:44:59;102537.00;;;18.78;42.81
70248;BME280;57641;51.416;5.506;2023-05-29T07:47:25;102530.75;;;18.77;42.85
70248;BME280;57641;51.416;5.506;2023-05-29T07:49:50;102525.56;;;19.00;43.44
70248;BME280;57641;51.416;5.506;2023-05-29T07:52:17;102531.84;;;19.09;42.41
70248;BME280;57641;51.416;5.506;2023-05-29T07:54:43;102537.38;;;18.99;41.64
70248;BME280;57641;51.416;5.506;2023-05-29T07:57:11;102534.00;;;19.05;42.25
70248;BME280;57641;51.416;5.506;2023-05-29T07:59:37;102532.66;;;19.25;41.96
70248;BME280;57641;51.416;5.506;2023-05-29T08:02:03;102539.78;;;19.34;41.90
70248;BME280;57641;51.416;5.506;2023-05-29T08:04:32;102542.97;;;19.38;41.63
70248;BME280;57641;51.416;5.506;2023-05-29T08:07:00;102542.66;;;19.49;41.50
70248;BME280;57641;51.416;5.506;2023-05-29T08:09:29;102544.19;;;19.52;41.18
70248;BME280;57641;51.416;5.506;2023-05-29T08:11:55;102540.13;;;19.39;40.90
70248;BME280;57641;51.416;5.506;2023-05-29T08:14:20;102537.09;;;19.51;40.54
70248;BME280;57641;51.416;5.506;2023-05-29T08:16:46;102541.47;;;19.52;41.14
70248;BME280;57641;51.416;5.506;2023-05-29T08:19:11;102538.44;;;19.47;41.19
70248;BME280;57641;51.416;5.506;2023-05-29T08:21:37;102549.91;;;19.40;40.17
70248;BME280;57641;51.416;5.506;2023-05-29T08:24:03;102544.50;;;19.57;40.65
70248;BME280;57641;51.416;5.506;2023-05-29T08:26:32;102540.59;;;19.67;40.44
70248;BME280;57641;51.416;5.506;2023-05-29T08:28:58;102546.84;;;19.35;39.57
70248;BME280;57641;51.416;5.506;2023-05-29T08:31:23;102547.53;;;19.62;39.84
70248;BME280;57641;51.416;5.506;2023-05-29T08:33:51;102548.38;;;19.38;40.08
70248;BME280;57641;51.416;5.506;2023-05-29T08:36:17;102539.91;;;19.81;39.76
70248;BME280;57641;51.416;5.506;2023-05-29T08:38:43;102542.78;;;19.80;40.07
70248;BME280;57641;51.416;5.506;2023-05-29T08:41:13;102549.34;;;19.94;40.30
70248;BME280;57641;51.416;5.506;2023-05-29T08:43:43;102546.63;;;20.02;39.65
70248;BME280;57641;51.416;5.506;2023-05-29T08:46:09;102551.72;;;19.97;40.12
70248;BME280;57641;51.416;5.506;2023-05-29T08:48:39;102556.91;;;20.14;38.79
70248;BME280;57641;51.416;5.506;2023-05-29T08:51:07;102549.59;;;20.23;39.49
70248;BME280;57641;51.416;5.506;2023-05-29T08:53:33;102557.09;;;20.13;39.19
70248;BME280;57641;51.416;5.506;2023-05-29T08:55:59;102552.84;;;20.18;39.90
70248;BME280;57641;51.416;5.506;2023-05-29T08:58:26;102546.69;;;20.33;38.90
70248;BME280;57641;51.416;5.506;2023-05-29T09:00:52;102557.53;;;20.41;38.21
70248;BME280;57641;51.416;5.506;2023-05-29T09:03:17;102551.50;;;20.53;38.72
70248;BME280;57641;51.416;5.506;2023-05-29T09:05:45;102552.44;;;20.69;38.34
70248;BME280;57641;51.416;5.506;2023-05-29T09:08:11;102562.00;;;20.56;37.98
70248;BME280;57641;51.416;5.506;2023-05-29T09:10:44;102564.84;;;20.63;38.60
70248;BME280;57641;51.416;5.506;2023-05-29T09:13:13;102561.50;;;20.53;38.25
70248;BME280;57641;51.416;5.506;2023-05-29T09:15:40;102566.19;;;20.67;38.15
70248;BME280;57641;51.416;5.506;2023-05-29T09:18:08;102563.88;;;20.56;37.71
70248;BME280;57641;51.416;5.506;2023-05-29T09:20:34;102571.00;;;20.80;38.04
70248;BME280;57641;51.416;5.506;2023-05-29T09:23:02;102566.66;;;20.71;38.17
70248;BME280;57641;51.416;5.506;2023-05-29T09:25:31;102565.28;;;20.75;37.57
70248;BME280;57641;51.416;5.506;2023-05-29T09:28:02;102562.03;;;20.79;37.42
70248;BME280;57641;51.416;5.506;2023-05-29T09:33:03;102563.56;;;20.82;37.11
70248;BME280;57641;51.416;5.506;2023-05-29T09:35:56;102562.25;;;20.31;37.37
70248;BME280;57641;51.416;5.506;2023-05-29T09:38:21;102564.44;;;20.74;37.20
70248;BME280;57641;51.416;5.506;2023-05-29T09:40:47;102556.94;;;20.53;37.93
70248;BME280;57641;51.416;5.506;2023-05-29T09:43:14;102559.06;;;20.97;37.30
70248;BME280;57641;51.416;5.506;2023-05-29T09:45:48;102562.50;;;21.14;36.76
70248;BME280;57641;51.416;5.506;2023-05-29T09:48:24;102565.38;;;21.12;37.40
70248;BME280;57641;51.416;5.506;2023-05-29T09:50:51;102558.16;;;21.27;35.90
70248;BME280;57641;51.416;5.506;2023-05-29T09:53:19;102562.56;;;21.28;36.44
70248;BME280;57641;51.416;5.506;2023-05-29T09:55:46;102561.97;;;21.41;35.92
70248;BME280;57641;51.416;5.506;2023-05-29T09:58:14;102563.19;;;21.53;36.52
70248;BME280;57641;51.416;5.506;2023-05-29T10:00:41;102560.84;;;21.50;36.18
70248;BME280;57641;51.416;5.506;2023-05-29T10:03:09;102555.09;;;21.68;36.01
70248;BME280;57641;51.416;5.506;2023-05-29T10:05:40;102549.69;;;21.82;36.05
70248;BME280;57641;51.416;5.506;2023-05-29T10:08:09;102555.69;;;21.92;36.11
70248;BME280;57641;51.416;5.506;2023-05-29T10:10:37;102554.56;;;21.35;35.74
70248;BME280;57641;51.416;5.506;2023-05-29T10:13:12;102555.44;;;21.50;36.13
70248;BME280;57641;51.416;5.506;2023-05-29T10:15:41;102542.91;;;21.78;35.21
70248;BME280;57641;51.416;5.506;2023-05-29T10:18:24;102557.03;;;21.97;35.09
70248;BME280;57641;51.416;5.506;2023-05-29T10:20:52;102545.22;;;22.04;35.60
70248;BME280;57641;51.416;5.506;2023-05-29T10:23:22;102549.25;;;22.08;34.50
70248;BME280;57641;51.416;5.506;2023-05-29T10:25:52;102550.38;;;22.14;34.65
70248;BME280;57641;51.416;5.506;2023-05-29T10:28:19;102545.41;;;22.03;34.75
70248;BME280;57641;51.416;5.506;2023-05-29T10:30:52;102543.13;;;21.91;34.25
70248;BME280;57641;51.416;5.506;2023-05-29T10:36:19;102544.47;;;21.43;35.44
70248;BME280;57641;51.416;5.506;2023-05-29T10:38:48;102544.28;;;22.12;35.76
70248;BME280;57641;51.416;5.506;2023-05-29T10:43:55;102540.16;;;22.30;34.21
70248;BME280;57641;51.416;5.506;2023-05-29T10:46:21;102533.97;;;22.22;34.66
70248;BME280;57641;51.416;5.506;2023-05-29T10:49:18;102541.16;;;22.44;35.18
70248;BME280;57641;51.416;5.506;2023-05-29T10:51:44;102537.97;;;22.41;34.88
70248;BME280;57641;51.416;5.506;2023-05-29T10:54:10;102538.59;;;22.57;34.32
70248;BME280;57641;51.416;5.506;2023-05-29T10:56:36;102534.25;;;22.78;34.44
70248;BME280;57641;51.416;5.506;2023-05-29T10:59:02;102537.19;;;22.61;34.03
70248;BME280;57641;51.416;5.506;2023-05-29T11:01:31;102532.56;;;22.77;34.21
70248;BME280;57641;51.416;5.506;2023-05-29T11:06:41;102530.22;;;22.95;33.72
70248;BME280;57641;51.416;5.506;2023-05-29T11:09:36;102529.28;;;23.02;32.75
70248;BME280;57641;51.416;5.506;2023-05-29T11:14:53;102521.69;;;23.19;33.17
70248;BME280;57641;51.416;5.506;2023-05-29T11:17:48;102525.19;;;23.13;33.93
70248;BME280;57641;51.416;5.506;2023-05-29T11:20:35;102523.47;;;23.33;33.47
70248;BME280;57641;51.416;5.506;2023-05-29T11:23:04;102519.31;;;22.88;32.67
70248;BME280;57641;51.416;5.506;2023-05-29T11:25:35;102508.69;;;23.42;32.71
70248;BME280;57641;51.416;5.506;2023-05-29T11:28:01;102517.78;;;23.28;32.57
70248;BME280;57641;51.416;5.506;2023-05-29T11:30:29;102520.09;;;23.03;32.59
70248;BME280;57641;51.416;5.506;2023-05-29T11:33:00;102509.03;;;23.33;32.27
70248;BME280;57641;51.416;5.506;2023-05-29T11:35:29;102508.34;;;23.45;33.65
70248;BME280;57641;51.416;5.506;2023-05-29T11:37:56;102512.53;;;23.48;31.99
70248;BME280;57641;51.416;5.506;2023-05-29T11:40:23;102517.09;;;23.69;31.97
70248;BME280;57641;51.416;5.506;2023-05-29T11:42:48;102511.00;;;23.67;31.83
70248;BME280;57641;51.416;5.506;2023-05-29T11:48:10;102514.31;;;23.62;31.56
70248;BME280;57641;51.416;5.506;2023-05-29T11:50:36;102512.28;;;23.71;31.88
70248;BME280;57641;51.416;5.506;2023-05-29T11:53:01;102502.69;;;23.81;32.61
70248;BME280;57641;51.416;5.506;2023-05-29T11:55:27;102515.00;;;23.71;31.94
70248;BME280;57641;51.416;5.506;2023-05-29T11:57:59;102516.50;;;23.80;31.44
70248;BME280;57641;51.416;5.506;2023-05-29T12:00:25;102503.56;;;23.82;30.57
70248;BME280;57641;51.416;5.506;2023-05-29T12:02:51;102505.44;;;23.81;30.86
70248;BME280;57641;51.416;5.506;2023-05-29T12:05:18;102506.69;;;23.79;31.66
70248;BME280;57641;51.416;5.506;2023-05-29T12:07:52;102509.13;;;23.67;31.48
70248;BME280;57641;51.416;5.506;2023-05-29T12:10:19;102505.38;;;23.68;31.74
70248;BME280;57641;51.416;5.506;2023-05-29T12:15:18;102504.34;;;23.76;31.66
70248;BME280;57641;51.416;5.506;2023-05-29T12:17:45;102510.06;;;23.87;31.89
70248;BME280;57641;51.416;5.506;2023-05-29T12:20:12;102496.97;;;24.04;31.66
70248;BME280;57641;51.416;5.506;2023-05-29T12:22:40;102500.25;;;23.93;31.04
70248;BME280;57641;51.416;5.506;2023-05-29T12:25:19;102495.94;;;24.05;31.27
70248;BME280;57641;51.416;5.506;2023-05-29T12:27:46;102496.03;;;23.84;30.92
70248;BME280;57641;51.416;5.506;2023-05-29T12:30:22;102510.88;;;23.81;31.01
70248;BME280;57641;51.416;5.506;2023-05-29T12:32:50;102502.13;;;23.92;31.67
70248;BME280;57641;51.416;5.506;2023-05-29T12:35:21;102503.66;;;24.02;31.69
70248;BME280;57641;51.416;5.506;2023-05-29T12:40:25;102497.56;;;23.65;31.32
70248;BME280;57641;51.416;5.506;2023-05-29T12:45:24;102500.63;;;23.83;31.16
70248;BME280;57641;51.416;5.506;2023-05-29T12:47:52;102493.22;;;24.05;31.21
70248;BME280;57641;51.416;5.506;2023-05-29T12:50:27;102503.81;;;24.21;31.24
70248;BME280;57641;51.416;5.506;2023-05-29T12:52:57;102501.72;;;24.30;30.59
70248;BME280;57641;51.416;5.506;2023-05-29T12:55:23;102506.16;;;24.44;30.96
70248;BME280;57641;51.416;5.506;2023-05-29T12:57:49;102504.25;;;24.31;30.79
70248;BME280;57641;51.416;5.506;2023-05-29T13:00:16;102501.06;;;24.21;30.40
70248;BME280;57641;51.416;5.506;2023-05-29T13:02:43;102497.81;;;24.52;30.98
70248;BME280;57641;51.416;5.506;2023-05-29T13:05:09;102498.66;;;24.53;30.43
70248;BME280;57641;51.416;5.506;2023-05-29T13:07:37;102499.03;;;24.36;30.45
70248;BME280;57641;51.416;5.506;2023-05-29T13:10:03;102498.25;;;24.62;30.76
70248;BME280;57641;51.416;5.506;2023-05-29T13:12:29;102488.16;;;24.50;29.92
70248;BME280;57641;51.416;5.506;2023-05-29T13:14:55;102492.00;;;24.68;30.24
70248;BME280;57641;51.416;5.506;2023-05-29T13:17:24;102498.72;;;24.79;30.63
70248;BME280;57641;51.416;5.506;2023-05-29T13:19:49;102498.69;;;24.72;30.59
70248;BME280;57641;51.416;5.506;2023-05-29T13:22:15;102501.06;;;24.89;30.52